Nettleham, United Kingdom
Current Conditions -  °F | °C
As of 12:50 AM on Sunday 26 Oct 2014 (Local Time) from EGXP Reporting Station
Broken Clouds Broken Clouds  
Wind Chill: 54°   Ceiling: 4200
Heat Index: 54°   Visibility: 6mi
Dew Point: 46°   Wind: 15mph
Humidity: 77%   Direction: 210°SSW
Pressure: 30"   Gusts: NA
Location:  53.27°N, 0.49°W
Report Text: EGXP 252350Z AUTO 21013KT 9999 // BKN042/// 12/08 Q1016
Loading
Personal Weather Stations






























Interactive Weather Map
Tropical Storm Tracking
New forecast layout! Learn more

10-Day Weather Forecast

Advertisements
Track Severe Weather on mobile